sensor_id;sensor_type;location;lat;lon;timestamp;P1;durP1;ratioP1;P2;durP2;ratioP2
65599;SDS011;52272;-29.642;-50.764;2022-12-08T00:03:36;4.95;;;1.60;;
65599;SDS011;52272;-29.642;-50.764;2022-12-08T00:06:14;3.50;;;1.90;;
65599;SDS011;52272;-29.642;-50.764;2022-12-08T00:09:16;10.98;;;2.00;;
65599;SDS011;52272;-29.642;-50.764;2022-12-08T00:12:04;6.82;;;2.10;;
65599;SDS011;52272;-29.642;-50.764;2022-12-08T00:14:37;4.82;;;1.67;;
65599;SDS011;52272;-29.642;-50.764;2022-12-08T00:17:12;2.92;;;1.90;;
65599;SDS011;52272;-29.642;-50.764;2022-12-08T00:19:43;2.53;;;2.00;;
65599;SDS011;52272;-29.642;-50.764;2022-12-08T00:22:14;6.80;;;2.20;;
65599;SDS011;52272;-29.642;-50.764;2022-12-08T00:27:17;8.20;;;2.20;;
65599;SDS011;52272;-29.642;-50.764;2022-12-08T00:29:47;4.22;;;2.05;;
65599;SDS011;52272;-29.642;-50.764;2022-12-08T00:32:17;3.42;;;1.85;;
65599;SDS011;52272;-29.642;-50.764;2022-12-08T00:34:48;7.63;;;1.90;;
65599;SDS011;52272;-29.642;-50.764;2022-12-08T00:37:21;6.35;;;1.90;;
65599;SDS011;52272;-29.642;-50.764;2022-12-08T00:39:51;6.25;;;1.73;;
65599;SDS011;52272;-29.642;-50.764;2022-12-08T00:42:21;4.55;;;1.90;;
65599;SDS011;52272;-29.642;-50.764;2022-12-08T00:45:01;4.15;;;1.90;;
65599;SDS011;52272;-29.642;-50.764;2022-12-08T00:47:31;7.93;;;2.10;;
65599;SDS011;52272;-29.642;-50.764;2022-12-08T00:50:02;7.85;;;3.58;;
65599;SDS011;52272;-29.642;-50.764;2022-12-08T00:52:33;2.83;;;2.50;;
65599;SDS011;52272;-29.642;-50.764;2022-12-08T00:55:04;9.27;;;2.67;;
65599;SDS011;52272;-29.642;-50.764;2022-12-08T00:57:34;5.63;;;2.55;;
65599;SDS011;52272;-29.642;-50.764;2022-12-08T01:00:05;6.28;;;2.83;;
65599;SDS011;52272;-29.642;-50.764;2022-12-08T01:02:36;6.45;;;2.60;;
65599;SDS011;52272;-29.642;-50.764;2022-12-08T01:05:07;10.38;;;3.50;;
65599;SDS011;52272;-29.642;-50.764;2022-12-08T01:07:37;7.10;;;3.15;;
65599;SDS011;52272;-29.642;-50.764;2022-12-08T01:10:08;9.60;;;3.55;;
65599;SDS011;52272;-29.642;-50.764;2022-12-08T01:15:11;7.13;;;2.83;;
65599;SDS011;52272;-29.642;-50.764;2022-12-08T01:17:41;6.72;;;2.90;;
65599;SDS011;52272;-29.642;-50.764;2022-12-08T01:20:12;14.00;;;3.38;;
65599;SDS011;52272;-29.642;-50.764;2022-12-08T01:25:11;8.02;;;3.55;;
65599;SDS011;52272;-29.642;-50.764;2022-12-08T01:27:42;6.40;;;3.45;;
65599;SDS011;52272;-29.642;-50.764;2022-12-08T01:30:12;16.30;;;7.30;;
65599;SDS011;52272;-29.642;-50.764;2022-12-08T01:32:43;9.85;;;4.53;;
65599;SDS011;52272;-29.642;-50.764;2022-12-08T01:35:13;6.82;;;4.45;;
65599;SDS011;52272;-29.642;-50.764;2022-12-08T01:37:43;8.68;;;3.90;;
65599;SDS011;52272;-29.642;-50.764;2022-12-08T01:40:13;8.70;;;3.42;;
65599;SDS011;52272;-29.642;-50.764;2022-12-08T01:42:43;11.40;;;3.70;;
65599;SDS011;52272;-29.642;-50.764;2022-12-08T01:45:15;5.78;;;3.22;;
65599;SDS011;52272;-29.642;-50.764;2022-12-08T01:47:55;6.97;;;3.38;;
65599;SDS011;52272;-29.642;-50.764;2022-12-08T01:50:29;7.38;;;3.80;;
65599;SDS011;52272;-29.642;-50.764;2022-12-08T01:53:00;8.75;;;3.35;;
65599;SDS011;52272;-29.642;-50.764;2022-12-08T01:55:41;5.43;;;3.20;;
65599;SDS011;52272;-29.642;-50.764;2022-12-08T01:58:23;10.15;;;3.35;;
65599;SDS011;52272;-29.642;-50.764;2022-12-08T02:00:58;6.00;;;3.20;;
65599;SDS011;52272;-29.642;-50.764;2022-12-08T02:06:34;9.60;;;3.15;;
65599;SDS011;52272;-29.642;-50.764;2022-12-08T02:09:09;7.75;;;3.75;;
65599;SDS011;52272;-29.642;-50.764;2022-12-08T02:11:40;8.98;;;3.20;;
65599;SDS011;52272;-29.642;-50.764;2022-12-08T02:14:10;8.30;;;3.67;;
65599;SDS011;52272;-29.642;-50.764;2022-12-08T02:19:37;4.20;;;2.97;;
65599;SDS011;52272;-29.642;-50.764;2022-12-08T02:25:27;11.93;;;3.47;;
65599;SDS011;52272;-29.642;-50.764;2022-12-08T02:30:53;12.13;;;3.80;;
65599;SDS011;52272;-29.642;-50.764;2022-12-08T02:33:56;10.80;;;4.30;;
65599;SDS011;52272;-29.642;-50.764;2022-12-08T02:39:45;11.57;;;3.90;;
65599;SDS011;52272;-29.642;-50.764;2022-12-08T02:42:31;8.18;;;4.03;;
65599;SDS011;52272;-29.642;-50.764;2022-12-08T02:47:43;11.48;;;4.50;;
65599;SDS011;52272;-29.642;-50.764;2022-12-08T02:50:14;17.65;;;4.70;;
65599;SDS011;52272;-29.642;-50.764;2022-12-08T02:52:45;8.55;;;4.20;;
65599;SDS011;52272;-29.642;-50.764;2022-12-08T02:55:19;7.43;;;4.30;;
65599;SDS011;52272;-29.642;-50.764;2022-12-08T02:58:00;6.95;;;4.38;;
65599;SDS011;52272;-29.642;-50.764;2022-12-08T03:01:04;11.18;;;4.43;;
65599;SDS011;52272;-29.642;-50.764;2022-12-08T03:12:15;8.90;;;4.97;;
65599;SDS011;52272;-29.642;-50.764;2022-12-08T03:17:49;24.60;;;4.60;;
65599;SDS011;52272;-29.642;-50.764;2022-12-08T03:20:24;7.75;;;3.75;;
65599;SDS011;52272;-29.642;-50.764;2022-12-08T03:22:56;9.75;;;3.50;;
65599;SDS011;52272;-29.642;-50.764;2022-12-08T03:25:29;10.52;;;4.15;;
65599;SDS011;52272;-29.642;-50.764;2022-12-08T03:28:04;11.90;;;4.65;;
65599;SDS011;52272;-29.642;-50.764;2022-12-08T03:30:35;11.60;;;5.03;;
65599;SDS011;52272;-29.642;-50.764;2022-12-08T03:33:16;7.30;;;4.72;;
65599;SDS011;52272;-29.642;-50.764;2022-12-08T03:35:55;8.50;;;3.90;;
65599;SDS011;52272;-29.642;-50.764;2022-12-08T03:38:35;9.93;;;3.97;;
65599;SDS011;52272;-29.642;-50.764;2022-12-08T03:41:10;7.30;;;3.30;;
65599;SDS011;52272;-29.642;-50.764;2022-12-08T03:46:25;10.48;;;3.50;;
65599;SDS011;52272;-29.642;-50.764;2022-12-08T03:51:24;8.32;;;3.22;;
65599;SDS011;52272;-29.642;-50.764;2022-12-08T03:56:25;8.07;;;4.03;;
65599;SDS011;52272;-29.642;-50.764;2022-12-08T03:59:00;8.27;;;4.57;;
65599;SDS011;52272;-29.642;-50.764;2022-12-08T04:01:30;9.85;;;4.35;;
65599;SDS011;52272;-29.642;-50.764;2022-12-08T04:04:01;9.73;;;4.28;;
65599;SDS011;52272;-29.642;-50.764;2022-12-08T04:06:32;6.25;;;4.03;;
65599;SDS011;52272;-29.642;-50.764;2022-12-08T04:11:31;14.55;;;3.95;;
65599;SDS011;52272;-29.642;-50.764;2022-12-08T04:14:01;6.75;;;3.65;;
65599;SDS011;52272;-29.642;-50.764;2022-12-08T04:16:32;11.23;;;4.07;;
65599;SDS011;52272;-29.642;-50.764;2022-12-08T04:19:02;5.45;;;3.17;;
65599;SDS011;52272;-29.642;-50.764;2022-12-08T04:21:33;31.00;;;4.53;;
65599;SDS011;52272;-29.642;-50.764;2022-12-08T04:24:06;7.60;;;3.15;;
65599;SDS011;52272;-29.642;-50.764;2022-12-08T04:26:36;11.05;;;3.85;;
65599;SDS011;52272;-29.642;-50.764;2022-12-08T04:29:06;9.68;;;3.58;;
65599;SDS011;52272;-29.642;-50.764;2022-12-08T04:34:06;5.20;;;3.05;;
65599;SDS011;52272;-29.642;-50.764;2022-12-08T04:36:38;6.68;;;3.10;;
65599;SDS011;52272;-29.642;-50.764;2022-12-08T04:39:08;8.07;;;3.05;;
65599;SDS011;52272;-29.642;-50.764;2022-12-08T04:44:07;5.20;;;2.90;;
65599;SDS011;52272;-29.642;-50.764;2022-12-08T04:46:37;5.72;;;3.67;;
65599;SDS011;52272;-29.642;-50.764;2022-12-08T04:49:10;6.30;;;3.00;;
65599;SDS011;52272;-29.642;-50.764;2022-12-08T04:51:41;8.23;;;3.70;;
65599;SDS011;52272;-29.642;-50.764;2022-12-08T04:56:40;9.95;;;4.78;;
65599;SDS011;52272;-29.642;-50.764;2022-12-08T04:59:10;103.93;;;9.15;;
65599;SDS011;52272;-29.642;-50.764;2022-12-08T05:01:41;19.35;;;5.40;;
65599;SDS011;52272;-29.642;-50.764;2022-12-08T05:04:11;9.68;;;4.40;;
65599;SDS011;52272;-29.642;-50.764;2022-12-08T05:06:41;25.42;;;4.78;;
65599;SDS011;52272;-29.642;-50.764;2022-12-08T05:09:11;7.30;;;4.45;;
65599;SDS011;52272;-29.642;-50.764;2022-12-08T05:11:41;11.35;;;4.22;;
65599;SDS011;52272;-29.642;-50.764;2022-12-08T05:14:16;8.90;;;3.97;;
65599;SDS011;52272;-29.642;-50.764;2022-12-08T05:16:47;8.63;;;4.68;;
65599;SDS011;52272;-29.642;-50.764;2022-12-08T05:19:17;6.05;;;4.10;;
65599;SDS011;52272;-29.642;-50.764;2022-12-08T05:21:48;9.50;;;3.92;;
65599;SDS011;52272;-29.642;-50.764;2022-12-08T05:24:18;8.40;;;5.20;;
65599;SDS011;52272;-29.642;-50.764;2022-12-08T05:26:49;10.70;;;5.22;;
65599;SDS011;52272;-29.642;-50.764;2022-12-08T05:29:18;13.48;;;4.95;;
65599;SDS011;52272;-29.642;-50.764;2022-12-08T05:34:18;8.77;;;4.70;;
65599;SDS011;52272;-29.642;-50.764;2022-12-08T05:36:48;8.68;;;4.88;;
65599;SDS011;52272;-29.642;-50.764;2022-12-08T05:39:19;7.05;;;4.20;;
65599;SDS011;52272;-29.642;-50.764;2022-12-08T05:44:20;9.45;;;4.45;;
65599;SDS011;52272;-29.642;-50.764;2022-12-08T05:46:50;9.27;;;4.65;;
65599;SDS011;52272;-29.642;-50.764;2022-12-08T05:51:50;8.48;;;5.32;;
65599;SDS011;52272;-29.642;-50.764;2022-12-08T05:54:21;18.08;;;6.15;;
65599;SDS011;52272;-29.642;-50.764;2022-12-08T05:56:51;14.77;;;6.53;;
65599;SDS011;52272;-29.642;-50.764;2022-12-08T05:59:22;88.90;;;10.75;;
65599;SDS011;52272;-29.642;-50.764;2022-12-08T06:01:52;15.15;;;7.53;;
65599;SDS011;52272;-29.642;-50.764;2022-12-08T06:04:23;21.30;;;7.55;;
65599;SDS011;52272;-29.642;-50.764;2022-12-08T06:06:53;26.40;;;8.55;;
65599;SDS011;52272;-29.642;-50.764;2022-12-08T06:09:24;13.30;;;7.55;;
65599;SDS011;52272;-29.642;-50.764;2022-12-08T06:11:54;14.15;;;7.55;;
65599;SDS011;52272;-29.642;-50.764;2022-12-08T06:14:24;9.82;;;6.15;;
65599;SDS011;52272;-29.642;-50.764;2022-12-08T06:16:54;77.40;;;9.88;;
65599;SDS011;52272;-29.642;-50.764;2022-12-08T06:21:54;9.32;;;3.88;;
65599;SDS011;52272;-29.642;-50.764;2022-12-08T06:24:24;20.58;;;4.88;;
65599;SDS011;52272;-29.642;-50.764;2022-12-08T06:26:56;122.65;;;13.30;;
65599;SDS011;52272;-29.642;-50.764;2022-12-08T06:31:55;10.20;;;5.47;;
65599;SDS011;52272;-29.642;-50.764;2022-12-08T06:34:26;14.57;;;5.28;;
65599;SDS011;52272;-29.642;-50.764;2022-12-08T06:36:56;9.90;;;5.70;;
65599;SDS011;52272;-29.642;-50.764;2022-12-08T06:39:26;8.07;;;5.45;;
65599;SDS011;52272;-29.642;-50.764;2022-12-08T06:41:56;20.20;;;6.00;;
65599;SDS011;52272;-29.642;-50.764;2022-12-08T06:44:44;7.78;;;5.22;;
65599;SDS011;52272;-29.642;-50.764;2022-12-08T06:47:15;10.20;;;5.90;;
65599;SDS011;52272;-29.642;-50.764;2022-12-08T06:49:52;6.80;;;4.55;;
65599;SDS011;52272;-29.642;-50.764;2022-12-08T06:52:23;11.50;;;5.20;;
65599;SDS011;52272;-29.642;-50.764;2022-12-08T06:54:53;21.15;;;6.13;;
65599;SDS011;52272;-29.642;-50.764;2022-12-08T06:57:24;6.03;;;4.43;;
65599;SDS011;52272;-29.642;-50.764;2022-12-08T06:59:54;34.72;;;5.60;;
65599;SDS011;52272;-29.642;-50.764;2022-12-08T07:02:25;52.70;;;6.18;;
65599;SDS011;52272;-29.642;-50.764;2022-12-08T07:04:55;39.92;;;5.55;;
65599;SDS011;52272;-29.642;-50.764;2022-12-08T07:07:25;59.80;;;6.05;;
65599;SDS011;52272;-29.642;-50.764;2022-12-08T07:09:55;48.22;;;5.18;;
65599;SDS011;52272;-29.642;-50.764;2022-12-08T07:12:28;15.68;;;3.33;;
65599;SDS011;52272;-29.642;-50.764;2022-12-08T07:14:58;11.32;;;3.45;;
65599;SDS011;52272;-29.642;-50.764;2022-12-08T07:17:28;32.20;;;5.43;;
65599;SDS011;52272;-29.642;-50.764;2022-12-08T07:22:29;38.92;;;6.95;;
65599;SDS011;52272;-29.642;-50.764;2022-12-08T07:27:28;71.00;;;7.97;;
65599;SDS011;52272;-29.642;-50.764;2022-12-08T07:29:58;26.98;;;5.45;;
65599;SDS011;52272;-29.642;-50.764;2022-12-08T07:32:29;60.42;;;7.63;;
65599;SDS011;52272;-29.642;-50.764;2022-12-08T07:34:59;27.90;;;5.57;;
65599;SDS011;52272;-29.642;-50.764;2022-12-08T07:37:31;44.67;;;6.40;;
65599;SDS011;52272;-29.642;-50.764;2022-12-08T07:40:03;33.95;;;6.20;;
65599;SDS011;52272;-29.642;-50.764;2022-12-08T07:42:35;8.75;;;4.50;;
65599;SDS011;52272;-29.642;-50.764;2022-12-08T07:45:05;44.25;;;7.72;;
65599;SDS011;52272;-29.642;-50.764;2022-12-08T07:47:36;5.05;;;3.75;;
65599;SDS011;52272;-29.642;-50.764;2022-12-08T07:50:07;7.07;;;4.55;;
65599;SDS011;52272;-29.642;-50.764;2022-12-08T07:52:47;59.00;;;7.88;;
65599;SDS011;52272;-29.642;-50.764;2022-12-08T07:55:18;12.35;;;5.05;;
65599;SDS011;52272;-29.642;-50.764;2022-12-08T08:00:19;93.20;;;8.43;;
65599;SDS011;52272;-29.642;-50.764;2022-12-08T08:02:49;31.67;;;6.47;;
65599;SDS011;52272;-29.642;-50.764;2022-12-08T08:05:20;131.68;;;10.60;;
65599;SDS011;52272;-29.642;-50.764;2022-12-08T08:07:51;109.32;;;10.40;;
65599;SDS011;52272;-29.642;-50.764;2022-12-08T08:10:21;80.78;;;9.27;;
65599;SDS011;52272;-29.642;-50.764;2022-12-08T08:15:21;110.20;;;8.38;;
65599;SDS011;52272;-29.642;-50.764;2022-12-08T08:17:51;57.58;;;8.23;;
65599;SDS011;52272;-29.642;-50.764;2022-12-08T08:20:22;112.75;;;11.15;;
65599;SDS011;52272;-29.642;-50.764;2022-12-08T08:22:53;17.35;;;5.75;;
65599;SDS011;52272;-29.642;-50.764;2022-12-08T08:25:23;20.02;;;5.20;;
65599;SDS011;52272;-29.642;-50.764;2022-12-08T08:27:53;96.60;;;9.55;;
65599;SDS011;52272;-29.642;-50.764;2022-12-08T08:30:23;103.90;;;10.23;;
65599;SDS011;52272;-29.642;-50.764;2022-12-08T08:32:54;138.25;;;10.50;;
65599;SDS011;52272;-29.642;-50.764;2022-12-08T08:35:24;138.25;;;9.93;;
65599;SDS011;52272;-29.642;-50.764;2022-12-08T08:37:55;80.10;;;7.70;;
65599;SDS011;52272;-29.642;-50.764;2022-12-08T08:40:27;138.23;;;10.07;;
65599;SDS011;52272;-29.642;-50.764;2022-12-08T08:42:59;123.80;;;9.38;;
65599;SDS011;52272;-29.642;-50.764;2022-12-08T08:45:33;4.35;;;3.47;;
65599;SDS011;52272;-29.642;-50.764;2022-12-08T08:48:03;177.02;;;11.45;;
65599;SDS011;52272;-29.642;-50.764;2022-12-08T08:50:34;143.63;;;10.65;;
65599;SDS011;52272;-29.642;-50.764;2022-12-08T08:53:05;133.82;;;9.88;;
65599;SDS011;52272;-29.642;-50.764;2022-12-08T08:55:37;94.70;;;9.48;;
65599;SDS011;52272;-29.642;-50.764;2022-12-08T08:58:08;153.32;;;11.75;;
65599;SDS011;52272;-29.642;-50.764;2022-12-08T09:00:38;131.13;;;9.32;;
65599;SDS011;52272;-29.642;-50.764;2022-12-08T09:03:09;139.52;;;9.85;;
65599;SDS011;52272;-29.642;-50.764;2022-12-08T09:05:40;129.13;;;9.50;;
65599;SDS011;52272;-29.642;-50.764;2022-12-08T09:08:11;166.05;;;11.95;;
65599;SDS011;52272;-29.642;-50.764;2022-12-08T09:10:41;167.77;;;13.23;;
65599;SDS011;52272;-29.642;-50.764;2022-12-08T09:13:12;124.53;;;10.80;;
65599;SDS011;52272;-29.642;-50.764;2022-12-08T09:15:45;115.25;;;9.63;;
65599;SDS011;52272;-29.642;-50.764;2022-12-08T09:18:15;192.90;;;14.65;;
65599;SDS011;52272;-29.642;-50.764;2022-12-08T09:20:45;101.05;;;8.85;;
65599;SDS011;52272;-29.642;-50.764;2022-12-08T09:23:16;220.27;;;16.67;;
65599;SDS011;52272;-29.642;-50.764;2022-12-08T09:25:46;130.98;;;9.25;;
65599;SDS011;52272;-29.642;-50.764;2022-12-08T09:28:17;66.82;;;5.45;;
65599;SDS011;52272;-29.642;-50.764;2022-12-08T09:30:47;61.38;;;6.35;;
65599;SDS011;52272;-29.642;-50.764;2022-12-08T09:33:22;3.63;;;3.17;;
65599;SDS011;52272;-29.642;-50.764;2022-12-08T09:35:52;146.30;;;8.63;;
65599;SDS011;52272;-29.642;-50.764;2022-12-08T09:38:23;3.85;;;3.45;;
65599;SDS011;52272;-29.642;-50.764;2022-12-08T09:40:53;38.10;;;5.18;;
65599;SDS011;52272;-29.642;-50.764;2022-12-08T09:48:50;3.92;;;3.25;;
65599;SDS011;52272;-29.642;-50.764;2022-12-08T09:51:26;4.07;;;3.40;;
65599;SDS011;52272;-29.642;-50.764;2022-12-08T09:56:50;5.65;;;2.58;;
65599;SDS011;52272;-29.642;-50.764;2022-12-08T09:59:26;7.00;;;2.72;;
65599;SDS011;52272;-29.642;-50.764;2022-12-08T10:02:00;2.92;;;2.65;;
65599;SDS011;52272;-29.642;-50.764;2022-12-08T10:04:36;2.55;;;2.35;;
65599;SDS011;52272;-29.642;-50.764;2022-12-08T10:18:16;2.47;;;1.73;;
65599;SDS011;52272;-29.642;-50.764;2022-12-08T10:20:48;2.13;;;1.90;;
65599;SDS011;52272;-29.642;-50.764;2022-12-08T10:23:35;1.80;;;1.70;;
65599;SDS011;52272;-29.642;-50.764;2022-12-08T10:26:13;2.50;;;2.15;;
65599;SDS011;52272;-29.642;-50.764;2022-12-08T10:28:46;3.15;;;1.83;;
65599;SDS011;52272;-29.642;-50.764;2022-12-08T10:31:20;2.97;;;1.80;;
65599;SDS011;52272;-29.642;-50.764;2022-12-08T10:33:59;3.65;;;1.27;;
65599;SDS011;52272;-29.642;-50.764;2022-12-08T10:45:00;2.67;;;1.75;;
65599;SDS011;52272;-29.642;-50.764;2022-12-08T10:47:34;9.35;;;2.25;;
65599;SDS011;52272;-29.642;-50.764;2022-12-08T10:53:21;8.90;;;2.00;;
65599;SDS011;52272;-29.642;-50.764;2022-12-08T10:58:37;11.48;;;2.72;;
65599;SDS011;52272;-29.642;-50.764;2022-12-08T11:03:49;11.70;;;2.38;;
65599;SDS011;52272;-29.642;-50.764;2022-12-08T11:09:30;11.20;;;2.47;;
65599;SDS011;52272;-29.642;-50.764;2022-12-08T11:12:18;15.73;;;2.80;;
65599;SDS011;52272;-29.642;-50.764;2022-12-08T11:14:53;10.48;;;3.00;;
65599;SDS011;52272;-29.642;-50.764;2022-12-08T11:17:35;7.80;;;2.60;;
65599;SDS011;52272;-29.642;-50.764;2022-12-08T11:22:50;13.00;;;3.25;;
65599;SDS011;52272;-29.642;-50.764;2022-12-08T11:25:23;8.98;;;3.47;;
65599;SDS011;52272;-29.642;-50.764;2022-12-08T11:27:57;14.63;;;2.53;;
65599;SDS011;52272;-29.642;-50.764;2022-12-08T11:31:29;8.50;;;2.67;;
65599;SDS011;52272;-29.642;-50.764;2022-12-08T11:34:04;9.27;;;2.97;;
65599;SDS011;52272;-29.642;-50.764;2022-12-08T11:36:38;10.70;;;2.75;;
65599;SDS011;52272;-29.642;-50.764;2022-12-08T11:39:08;8.35;;;2.80;;
65599;SDS011;52272;-29.642;-50.764;2022-12-08T11:41:41;9.32;;;2.97;;
65599;SDS011;52272;-29.642;-50.764;2022-12-08T11:44:28;6.40;;;2.60;;
65599;SDS011;52272;-29.642;-50.764;2022-12-08T11:47:10;13.95;;;2.78;;
65599;SDS011;52272;-29.642;-50.764;2022-12-08T11:49:46;8.23;;;2.53;;
65599;SDS011;52272;-29.642;-50.764;2022-12-08T11:52:28;10.07;;;2.63;;
65599;SDS011;52272;-29.642;-50.764;2022-12-08T11:55:20;7.10;;;2.97;;
65599;SDS011;52272;-29.642;-50.764;2022-12-08T11:57:53;8.15;;;3.35;;
65599;SDS011;52272;-29.642;-50.764;2022-12-08T12:00:25;10.60;;;2.80;;
65599;SDS011;52272;-29.642;-50.764;2022-12-08T12:02:59;7.65;;;2.45;;
65599;SDS011;52272;-29.642;-50.764;2022-12-08T12:06:01;6.40;;;2.78;;
65599;SDS011;52272;-29.642;-50.764;2022-12-08T12:09:08;6.85;;;2.70;;
65599;SDS011;52272;-29.642;-50.764;2022-12-08T12:20:21;7.63;;;2.60;;
65599;SDS011;52272;-29.642;-50.764;2022-12-08T12:23:00;5.13;;;2.50;;
65599;SDS011;52272;-29.642;-50.764;2022-12-08T12:25:35;4.38;;;2.50;;
65599;SDS011;52272;-29.642;-50.764;2022-12-08T12:28:10;7.95;;;2.90;;
65599;SDS011;52272;-29.642;-50.764;2022-12-08T12:30:56;7.38;;;3.00;;
65599;SDS011;52272;-29.642;-50.764;2022-12-08T12:33:29;6.13;;;2.60;;
65599;SDS011;52272;-29.642;-50.764;2022-12-08T12:36:06;5.80;;;2.92;;
65599;SDS011;52272;-29.642;-50.764;2022-12-08T12:38:51;9.35;;;2.85;;
65599;SDS011;52272;-29.642;-50.764;2022-12-08T12:41:53;7.03;;;2.97;;
65599;SDS011;52272;-29.642;-50.764;2022-12-08T12:46:58;6.45;;;2.92;;
65599;SDS011;52272;-29.642;-50.764;2022-12-08T12:57:21;4.90;;;3.15;;
65599;SDS011;52272;-29.642;-50.764;2022-12-08T13:02:27;5.55;;;2.80;;
65599;SDS011;52272;-29.642;-50.764;2022-12-08T13:05:02;4.85;;;2.78;;
65599;SDS011;52272;-29.642;-50.764;2022-12-08T13:13:38;5.55;;;3.00;;
65599;SDS011;52272;-29.642;-50.764;2022-12-08T13:16:32;9.13;;;3.30;;
65599;SDS011;52272;-29.642;-50.764;2022-12-08T13:19:11;7.60;;;2.85;;
65599;SDS011;52272;-29.642;-50.764;2022-12-08T13:21:46;4.63;;;3.03;;
65599;SDS011;52272;-29.642;-50.764;2022-12-08T13:24:37;4.70;;;2.90;;
65599;SDS011;52272;-29.642;-50.764;2022-12-08T13:29:37;4.25;;;2.92;;
65599;SDS011;52272;-29.642;-50.764;2022-12-08T13:40:23;5.75;;;3.10;;
65599;SDS011;52272;-29.642;-50.764;2022-12-08T13:45:46;3.80;;;3.08;;
65599;SDS011;52272;-29.642;-50.764;2022-12-08T13:48:39;4.68;;;2.83;;
65599;SDS011;52272;-29.642;-50.764;2022-12-08T13:51:39;3.60;;;2.85;;
65599;SDS011;52272;-29.642;-50.764;2022-12-08T13:54:35;6.45;;;3.10;;
65599;SDS011;52272;-29.642;-50.764;2022-12-08T13:57:30;4.78;;;2.97;;
65599;SDS011;52272;-29.642;-50.764;2022-12-08T14:00:05;5.50;;;3.05;;
65599;SDS011;52272;-29.642;-50.764;2022-12-08T14:02:46;6.57;;;3.60;;
65599;SDS011;52272;-29.642;-50.764;2022-12-08T14:05:19;5.63;;;3.45;;
65599;SDS011;52272;-29.642;-50.764;2022-12-08T14:11:17;5.72;;;3.70;;
65599;SDS011;52272;-29.642;-50.764;2022-12-08T14:14:06;8.18;;;3.75;;
65599;SDS011;52272;-29.642;-50.764;2022-12-08T14:16:51;5.40;;;3.20;;
65599;SDS011;52272;-29.642;-50.764;2022-12-08T14:19:24;10.05;;;4.20;;
65599;SDS011;52272;-29.642;-50.764;2022-12-08T14:21:57;7.35;;;3.58;;
65599;SDS011;52272;-29.642;-50.764;2022-12-08T14:24:45;6.40;;;3.55;;
65599;SDS011;52272;-29.642;-50.764;2022-12-08T14:27:26;8.27;;;3.95;;
65599;SDS011;52272;-29.642;-50.764;2022-12-08T14:30:21;9.50;;;3.92;;
65599;SDS011;52272;-29.642;-50.764;2022-12-08T14:32:56;6.10;;;3.42;;
65599;SDS011;52272;-29.642;-50.764;2022-12-08T14:35:35;6.55;;;4.25;;
65599;SDS011;52272;-29.642;-50.764;2022-12-08T14:38:13;5.13;;;3.97;;
65599;SDS011;52272;-29.642;-50.764;2022-12-08T14:41:04;5.25;;;3.97;;
65599;SDS011;52272;-29.642;-50.764;2022-12-08T14:43:37;7.10;;;3.90;;
65599;SDS011;52272;-29.642;-50.764;2022-12-08T14:46:19;6.75;;;3.63;;
65599;SDS011;52272;-29.642;-50.764;2022-12-08T14:48:50;5.20;;;3.70;;
65599;SDS011;52272;-29.642;-50.764;2022-12-08T14:51:25;5.38;;;4.20;;
65599;SDS011;52272;-29.642;-50.764;2022-12-08T14:54:00;5.57;;;4.03;;
65599;SDS011;52272;-29.642;-50.764;2022-12-08T14:59:28;5.10;;;4.55;;
65599;SDS011;52272;-29.642;-50.764;2022-12-08T15:02:11;7.78;;;4.43;;
65599;SDS011;52272;-29.642;-50.764;2022-12-08T15:05:00;7.43;;;4.38;;
65599;SDS011;52272;-29.642;-50.764;2022-12-08T15:07:50;7.28;;;4.32;;
65599;SDS011;52272;-29.642;-50.764;2022-12-08T15:10:23;5.72;;;4.43;;
65599;SDS011;52272;-29.642;-50.764;2022-12-08T15:13:01;5.80;;;3.97;;
65599;SDS011;52272;-29.642;-50.764;2022-12-08T15:15:45;8.38;;;4.05;;
65599;SDS011;52272;-29.642;-50.764;2022-12-08T15:18:34;8.00;;;4.45;;
65599;SDS011;52272;-29.642;-50.764;2022-12-08T15:21:09;6.57;;;4.00;;
65599;SDS011;52272;-29.642;-50.764;2022-12-08T15:23:48;8.45;;;4.72;;
65599;SDS011;52272;-29.642;-50.764;2022-12-08T15:26:21;5.35;;;4.10;;
65599;SDS011;52272;-29.642;-50.764;2022-12-08T15:28:53;5.97;;;4.78;;
65599;SDS011;52272;-29.642;-50.764;2022-12-08T15:31:23;5.22;;;4.07;;
65599;SDS011;52272;-29.642;-50.764;2022-12-08T15:33:54;5.95;;;4.75;;
65599;SDS011;52272;-29.642;-50.764;2022-12-08T15:36:24;8.65;;;4.40;;
65599;SDS011;52272;-29.642;-50.764;2022-12-08T15:38:55;4.65;;;3.97;;
65599;SDS011;52272;-29.642;-50.764;2022-12-08T15:41:25;4.43;;;3.92;;
65599;SDS011;52272;-29.642;-50.764;2022-12-08T15:43:55;8.45;;;4.20;;
65599;SDS011;52272;-29.642;-50.764;2022-12-08T15:46:26;6.70;;;4.25;;
65599;SDS011;52272;-29.642;-50.764;2022-12-08T15:48:56;6.63;;;4.25;;
65599;SDS011;52272;-29.642;-50.764;2022-12-08T15:51:26;8.38;;;4.07;;
65599;SDS011;52272;-29.642;-50.764;2022-12-08T15:53:59;5.20;;;4.03;;
65599;SDS011;52272;-29.642;-50.764;2022-12-08T15:56:28;6.60;;;4.10;;
65599;SDS011;52272;-29.642;-50.764;2022-12-08T15:59:01;7.47;;;4.70;;
65599;SDS011;52272;-29.642;-50.764;2022-12-08T16:01:31;6.75;;;4.28;;
65599;SDS011;52272;-29.642;-50.764;2022-12-08T16:04:01;9.82;;;4.57;;
65599;SDS011;52272;-29.642;-50.764;2022-12-08T16:06:52;6.38;;;4.55;;
65599;SDS011;52272;-29.642;-50.764;2022-12-08T16:09:42;8.35;;;4.95;;
65599;SDS011;52272;-29.642;-50.764;2022-12-08T16:12:20;8.32;;;4.35;;
65599;SDS011;52272;-29.642;-50.764;2022-12-08T16:15:30;7.20;;;4.30;;
65599;SDS011;52272;-29.642;-50.764;2022-12-08T16:18:32;6.57;;;4.50;;
65599;SDS011;52272;-29.642;-50.764;2022-12-08T16:21:04;6.60;;;4.50;;
65599;SDS011;52272;-29.642;-50.764;2022-12-08T16:23:54;11.48;;;4.82;;
65599;SDS011;52272;-29.642;-50.764;2022-12-08T16:26:25;6.35;;;4.40;;
65599;SDS011;52272;-29.642;-50.764;2022-12-08T16:29:16;7.03;;;3.97;;
65599;SDS011;52272;-29.642;-50.764;2022-12-08T16:31:49;6.15;;;4.05;;
65599;SDS011;52272;-29.642;-50.764;2022-12-08T16:34:19;6.45;;;4.20;;
65599;SDS011;52272;-29.642;-50.764;2022-12-08T16:36:50;8.60;;;4.00;;
65599;SDS011;52272;-29.642;-50.764;2022-12-08T16:39:20;5.28;;;3.88;;
65599;SDS011;52272;-29.642;-50.764;2022-12-08T16:41:51;6.05;;;3.90;;
65599;SDS011;52272;-29.642;-50.764;2022-12-08T16:44:39;5.75;;;4.00;;
65599;SDS011;52272;-29.642;-50.764;2022-12-08T16:47:10;4.88;;;3.38;;
65599;SDS011;52272;-29.642;-50.764;2022-12-08T16:49:41;6.30;;;3.42;;
65599;SDS011;52272;-29.642;-50.764;2022-12-08T16:52:11;5.30;;;3.95;;
65599;SDS011;52272;-29.642;-50.764;2022-12-08T16:54:41;5.07;;;3.53;;
65599;SDS011;52272;-29.642;-50.764;2022-12-08T16:57:12;8.40;;;3.70;;
65599;SDS011;52272;-29.642;-50.764;2022-12-08T16:59:42;6.15;;;3.90;;
65599;SDS011;52272;-29.642;-50.764;2022-12-08T17:02:12;6.53;;;3.72;;
65599;SDS011;52272;-29.642;-50.764;2022-12-08T17:04:43;6.10;;;3.38;;
65599;SDS011;52272;-29.642;-50.764;2022-12-08T17:07:13;4.82;;;3.75;;
65599;SDS011;52272;-29.642;-50.764;2022-12-08T17:09:44;7.13;;;3.70;;
65599;SDS011;52272;-29.642;-50.764;2022-12-08T17:12:14;6.95;;;4.20;;
65599;SDS011;52272;-29.642;-50.764;2022-12-08T17:14:44;5.50;;;3.15;;
65599;SDS011;52272;-29.642;-50.764;2022-12-08T17:17:18;5.15;;;3.75;;
65599;SDS011;52272;-29.642;-50.764;2022-12-08T17:19:48;8.98;;;4.10;;
65599;SDS011;52272;-29.642;-50.764;2022-12-08T17:22:18;7.05;;;3.70;;
65599;SDS011;52272;-29.642;-50.764;2022-12-08T17:24:48;7.55;;;4.00;;
65599;SDS011;52272;-29.642;-50.764;2022-12-08T17:27:19;8.40;;;3.20;;
65599;SDS011;52272;-29.642;-50.764;2022-12-08T17:29:49;6.13;;;3.50;;
65599;SDS011;52272;-29.642;-50.764;2022-12-08T17:32:19;5.32;;;3.60;;
65599;SDS011;52272;-29.642;-50.764;2022-12-08T17:34:52;7.40;;;3.88;;